Terminal Aerodrome Forecast
Issued by NWS

Home | Current Version | Previous Version | Text Only | Print | Product List | Glossary On
Versions: 1 2 3 4 5 6 7 8 9 10 11 12 13 14 15 16 17 18 19
000
FTUS43 KILX 211131
TAFDEC
TAF
KDEC 211131Z 2112/2212 21013KT P6SM BKN250 WS015/23040KT
     FM211500 24013G20KT P6SM BKN110
     FM211800 31014G23KT P6SM SCT050 BKN090
     FM220100 32009KT P6SM FEW250=

USA.gov is the U.S. government's official web portal to all federal, state and local government web resources and services.